Time;durP1;ratioP1;P1;durP2;ratioP2;P2;SDS_P1;SDS_P2;PMS_P1;PMS_P2;Temp;Humidity;BMP_temperature;BMP_pressure;BME280_temperature;BME280_humidity;BME280_pressure;Samples;Min_cycle;Max_cycle;Signal;HPM_P1;HPM_P2
2021/05/10 00:01:37;;;;;;;2.40;1.30;;;;;;;;;;4975246;28;20197;-82
2021/05/10 00:04:05;;;;;;;1.77;1.33;;;;;;;;;;4976233;28;20227;-82
2021/05/10 00:06:32;;;;;;;2.22;1.30;;;;;;;;;;4974685;28;20211;-82
2021/05/10 00:08:59;;;;;;;2.35;1.30;;;;;;;;;;4976480;28;20236;-82
2021/05/10 00:11:27;;;;;;;1.33;1.20;;;;;;;;;;4976379;28;20640;-82
2021/05/10 00:13:55;;;;;;;1.40;1.30;;;;;;;;;;4976291;28;20181;-82
2021/05/10 00:16:23;;;;;;;2.03;1.20;;;;;;;;;;4976472;28;20219;-82
2021/05/10 00:18:50;;;;;;;2.67;1.23;;;;;;;;;;4978852;28;20242;-82
2021/05/10 00:21:17;;;;;;;1.40;1.30;;;;;;;;;;4995518;28;20208;-82
2021/05/10 00:23:44;;;;;;;1.20;1.08;;;;;;;;;;4995963;28;20206;-82
2021/05/10 00:26:11;;;;;;;1.30;1.20;;;;;;;;;;4996021;28;20736;-82
2021/05/10 00:28:38;;;;;;;1.50;1.23;;;;;;;;;;4995658;28;20207;-82
2021/05/10 00:31:05;;;;;;;2.15;1.30;;;;;;;;;;4997264;28;20686;-82
2021/05/10 00:33:31;;;;;;;1.27;1.15;;;;;;;;;;4999755;28;20234;-82
2021/05/10 00:35:59;;;;;;;1.55;1.40;;;;;;;;;;5000288;28;20199;-82
2021/05/10 00:38:26;;;;;;;1.40;1.30;;;;;;;;;;4999848;28;20215;-82
2021/05/10 00:40:53;;;;;;;1.77;1.67;;;;;;;;;;4999807;28;20207;-82
2021/05/10 00:43:20;;;;;;;3.10;1.67;;;;;;;;;;5000477;28;20192;-82
2021/05/10 00:45:47;;;;;;;1.33;1.23;;;;;;;;;;4999868;28;20208;-82
2021/05/10 00:48:17;;;;;;;2.13;1.23;;;;;;;;;;4999645;28;20207;-82
2021/05/10 00:50:43;;;;;;;3.33;1.05;;;;;;;;;;4999443;28;20231;-82
2021/05/10 00:53:11;;;;;;;1.20;1.20;;;;;;;;;;4999046;28;20208;-82
2021/05/10 00:55:38;;;;;;;1.10;1.10;;;;;;;;;;4999539;28;20208;-82
2021/05/10 00:58:05;;;;;;;15.38;3.08;;;;;;;;;;4999689;28;20185;-82
2021/05/10 01:00:35;;;;;;;1.67;1.20;;;;;;;;;;4999216;28;20223;-82
2021/05/10 01:03:02;;;;;;;1.63;1.30;;;;;;;;;;4999947;28;20255;-82
2021/05/10 01:05:29;;;;;;;1.40;1.10;;;;;;;;;;4999262;28;20214;-82
2021/05/10 01:07:56;;;;;;;3.50;1.08;;;;;;;;;;4999143;28;20184;-82
2021/05/10 01:10:26;;;;;;;2.00;1.30;;;;;;;;;;4998905;28;20223;-82
2021/05/10 01:12:53;;;;;;;1.17;1.08;;;;;;;;;;4998989;28;20187;-82
2021/05/10 01:15:23;;;;;;;1.02;1.02;;;;;;;;;;4999465;28;20203;-82
2021/05/10 01:17:52;;;;;;;3.20;1.17;;;;;;;;;;4999220;28;20588;-82
2021/05/10 01:20:19;;;;;;;1.38;1.27;;;;;;;;;;4998902;28;20714;-82
2021/05/10 01:22:49;;;;;;;1.67;1.52;;;;;;;;;;4999270;28;20627;-82
2021/05/10 01:25:18;;;;;;;2.17;1.60;;;;;;;;;;4999162;28;20211;-82
2021/05/10 01:27:45;;;;;;;1.25;1.15;;;;;;;;;;4998268;28;20196;-82
2021/05/10 01:30:20;;;;;;;2.22;1.20;;;;;;;;;;4998302;28;20230;-82
2021/05/10 01:32:48;;;;;;;1.20;1.20;;;;;;;;;;4999056;28;20660;-82
2021/05/10 01:35:18;;;;;;;1.52;1.20;;;;;;;;;;4998984;28;20566;-82
2021/05/10 01:37:45;;;;;;;1.98;1.20;;;;;;;;;;4998354;28;20208;-82
2021/05/10 01:40:14;;;;;;;2.08;1.40;;;;;;;;;;4998168;28;20220;-81
2021/05/10 01:42:41;;;;;;;1.85;1.42;;;;;;;;;;4998625;28;20188;-83
2021/05/10 01:45:10;;;;;;;1.30;1.20;;;;;;;;;;4998348;28;20184;-82
2021/05/10 01:47:37;;;;;;;2.25;1.42;;;;;;;;;;4998665;28;20207;-82
2021/05/10 01:50:14;;;;;;;2.03;1.50;;;;;;;;;;4998155;28;20302;-82
2021/05/10 01:52:41;;;;;;;1.73;1.60;;;;;;;;;;4998667;28;20183;-82
2021/05/10 01:55:10;;;;;;;1.95;1.13;;;;;;;;;;4998349;28;20204;-82
2021/05/10 01:57:39;;;;;;;1.65;1.05;;;;;;;;;;4998734;28;20207;-82
2021/05/10 02:00:12;;;;;;;1.63;1.05;;;;;;;;;;4998690;28;20246;-82
2021/05/10 02:02:39;;;;;;;1.20;1.15;;;;;;;;;;4997714;28;20207;-82
2021/05/10 02:05:15;;;;;;;1.60;1.25;;;;;;;;;;4998814;28;20188;-82
2021/05/10 02:07:45;;;;;;;1.85;1.10;;;;;;;;;;4998768;28;20199;-82
2021/05/10 02:10:15;;;;;;;2.17;1.35;;;;;;;;;;4998113;28;20223;-82
2021/05/10 02:12:52;;;;;;;2.50;1.20;;;;;;;;;;4998140;28;20211;-82
2021/05/10 02:15:19;;;;;;;1.40;1.23;;;;;;;;;;4998242;28;20179;-82
2021/05/10 02:17:47;;;;;;;1.75;1.65;;;;;;;;;;4998105;28;20192;-82
2021/05/10 02:20:15;;;;;;;2.75;1.92;;;;;;;;;;4997473;28;20701;-82
2021/05/10 02:22:48;;;;;;;2.30;1.77;;;;;;;;;;4996177;28;20214;-82
2021/05/10 02:25:19;;;;;;;1.75;1.58;;;;;;;;;;4996311;28;20195;-82
2021/05/10 02:27:47;;;;;;;1.75;1.65;;;;;;;;;;4996356;28;20291;-82
2021/05/10 02:30:15;;;;;;;1.40;1.30;;;;;;;;;;4995978;28;20243;-82
2021/05/10 02:32:43;;;;;;;1.45;1.35;;;;;;;;;;4995868;28;20184;-83
2021/05/10 02:35:11;;;;;;;1.70;1.50;;;;;;;;;;4996085;28;20565;-81
2021/05/10 02:37:40;;;;;;;1.70;1.60;;;;;;;;;;4995774;28;20214;-82
2021/05/10 02:40:09;;;;;;;1.23;1.13;;;;;;;;;;4995738;28;20327;-82
2021/05/10 02:42:36;;;;;;;1.50;1.40;;;;;;;;;;4994245;28;20203;-82
2021/05/10 02:45:07;;;;;;;1.27;1.17;;;;;;;;;;4995525;28;20199;-81
2021/05/10 02:47:34;;;;;;;1.60;1.50;;;;;;;;;;4995968;28;20192;-82
2021/05/10 02:50:01;;;;;;;1.70;1.33;;;;;;;;;;4995332;28;20721;-81
2021/05/10 02:52:28;;;;;;;1.13;1.02;;;;;;;;;;4995863;28;20199;-83
2021/05/10 02:54:55;;;;;;;2.42;1.50;;;;;;;;;;4994718;28;20665;-81
2021/05/10 02:57:22;;;;;;;1.83;1.48;;;;;;;;;;4995802;28;20207;-81
2021/05/10 02:59:49;;;;;;;4.53;1.88;;;;;;;;;;4995639;28;20215;-81
2021/05/10 03:02:17;;;;;;;1.38;1.20;;;;;;;;;;4995609;28;20266;-82
2021/05/10 03:04:44;;;;;;;1.40;1.30;;;;;;;;;;4995625;28;20185;-81
2021/05/10 03:07:11;;;;;;;1.40;1.40;;;;;;;;;;4995221;28;20585;-81
2021/05/10 03:09:38;;;;;;;1.10;1.10;;;;;;;;;;4995403;28;20223;-82
2021/05/10 03:12:07;;;;;;;1.33;1.23;;;;;;;;;;4995499;28;20242;-82
2021/05/10 03:14:34;;;;;;;2.03;1.40;;;;;;;;;;4995574;28;20196;-82
2021/05/10 03:17:00;;;;;;;1.60;1.30;;;;;;;;;;4995441;28;20339;-82
2021/05/10 03:19:28;;;;;;;1.60;1.50;;;;;;;;;;4994737;28;20235;-82
2021/05/10 03:21:56;;;;;;;1.80;1.70;;;;;;;;;;4995100;28;20207;-81
2021/05/10 03:24:23;;;;;;;1.75;1.42;;;;;;;;;;4995267;28;20188;-81
2021/05/10 03:26:50;;;;;;;2.38;1.40;;;;;;;;;;4995312;28;20195;-81
2021/05/10 03:29:17;;;;;;;1.50;1.27;;;;;;;;;;4994855;28;20729;-81
2021/05/10 03:31:44;;;;;;;1.50;1.40;;;;;;;;;;4995293;28;20304;-82
2021/05/10 03:34:11;;;;;;;1.55;1.30;;;;;;;;;;4995333;28;20214;-82
2021/05/10 03:36:40;;;;;;;1.58;1.48;;;;;;;;;;4995642;28;20203;-81
2021/05/10 03:39:07;;;;;;;2.75;1.85;;;;;;;;;;4995401;28;20228;-82
2021/05/10 03:41:34;;;;;;;2.42;2.22;;;;;;;;;;4995073;28;20207;-81
2021/05/10 03:44:02;;;;;;;1.77;1.67;;;;;;;;;;4995080;28;20184;-82
2021/05/10 03:46:29;;;;;;;2.10;1.90;;;;;;;;;;4995292;28;20243;-82
2021/05/10 03:48:56;;;;;;;3.05;2.72;;;;;;;;;;4994844;28;20219;-82
2021/05/10 03:51:22;;;;;;;2.50;2.10;;;;;;;;;;4994819;28;20211;-82
2021/05/10 03:53:50;;;;;;;3.03;2.55;;;;;;;;;;4995074;28;20203;-82
2021/05/10 03:56:17;;;;;;;2.55;1.85;;;;;;;;;;4994972;28;20682;-81
2021/05/10 03:58:44;;;;;;;2.50;2.30;;;;;;;;;;4994671;28;20226;-82
2021/05/10 04:01:12;;;;;;;2.30;2.10;;;;;;;;;;4994667;28;20206;-83
2021/05/10 04:03:43;;;;;;;1.83;1.67;;;;;;;;;;4994939;28;20191;-83
2021/05/10 04:06:21;;;;;;;1.98;1.88;;;;;;;;;;4994242;28;20278;-81
2021/05/10 04:14:12;;;;;;;1.40;1.30;;;;;;;;;;4994828;28;20281;-82
2021/05/10 04:16:40;;;;;;;1.55;1.40;;;;;;;;;;4994968;28;20713;-82
2021/05/10 04:19:06;;;;;;;1.50;1.40;;;;;;;;;;4994902;28;20246;-82
2021/05/10 04:21:33;;;;;;;3.30;2.33;;;;;;;;;;4994432;28;20666;-81
2021/05/10 04:24:02;;;;;;;1.50;1.40;;;;;;;;;;4995262;28;20188;-82
2021/05/10 04:26:29;;;;;;;1.70;1.60;;;;;;;;;;4995491;28;20657;-81
2021/05/10 04:28:56;;;;;;;1.77;1.60;;;;;;;;;;4994796;28;20234;-81
2021/05/10 04:31:23;;;;;;;2.40;1.60;;;;;;;;;;4994628;28;20682;-81
2021/05/10 04:33:50;;;;;;;3.20;1.65;;;;;;;;;;4994808;28;20207;-81
2021/05/10 04:36:17;;;;;;;3.60;1.33;;;;;;;;;;4994914;28;20265;-82
2021/05/10 04:38:44;;;;;;;2.15;1.77;;;;;;;;;;4994583;28;20184;-82
2021/05/10 04:41:11;;;;;;;2.00;1.90;;;;;;;;;;4994951;28;20204;-81
2021/05/10 04:43:39;;;;;;;1.80;1.70;;;;;;;;;;4994715;28;20207;-82
2021/05/10 04:46:06;;;;;;;1.95;1.58;;;;;;;;;;4995445;28;20195;-82
2021/05/10 04:48:34;;;;;;;2.47;1.58;;;;;;;;;;4994751;28;20215;-82
2021/05/10 04:51:01;;;;;;;2.25;1.50;;;;;;;;;;4994509;28;20219;-81
2021/05/10 04:53:29;;;;;;;1.73;1.63;;;;;;;;;;4994580;28;20188;-81
2021/05/10 04:55:56;;;;;;;5.78;1.80;;;;;;;;;;4994723;28;20209;-83
2021/05/10 04:58:23;;;;;;;1.83;1.63;;;;;;;;;;4994861;28;20208;-81
2021/05/10 05:00:50;;;;;;;2.20;2.00;;;;;;;;;;4994454;28;20718;-82
2021/05/10 05:03:17;;;;;;;5.75;1.92;;;;;;;;;;4994710;28;20199;-81
2021/05/10 05:05:46;;;;;;;1.60;1.52;;;;;;;;;;4994479;28;20188;-81
2021/05/10 05:08:14;;;;;;;1.83;1.45;;;;;;;;;;4994604;28;20188;-81
2021/05/10 05:10:41;;;;;;;2.30;1.52;;;;;;;;;;4994626;28;20228;-81
2021/05/10 05:13:09;;;;;;;1.85;1.75;;;;;;;;;;4994619;28;20191;-81
2021/05/10 05:15:37;;;;;;;1.45;1.35;;;;;;;;;;4994780;28;20583;-82
2021/05/10 05:18:05;;;;;;;1.50;1.40;;;;;;;;;;4997722;28;20220;-82
2021/05/10 05:20:37;;;;;;;1.75;1.55;;;;;;;;;;4997435;28;20235;-82
2021/05/10 05:23:03;;;;;;;2.65;1.40;;;;;;;;;;4998283;28;20689;-82
2021/05/10 05:25:30;;;;;;;1.60;1.50;;;;;;;;;;4998148;28;20211;-81
2021/05/10 05:27:57;;;;;;;1.85;1.50;;;;;;;;;;4997449;28;20210;-81
2021/05/10 05:30:24;;;;;;;2.55;1.58;;;;;;;;;;4997769;28;20718;-81
2021/05/10 05:32:52;;;;;;;1.60;1.50;;;;;;;;;;4998465;28;20184;-81
2021/05/10 05:35:19;;;;;;;2.05;1.85;;;;;;;;;;4997984;28;20214;-81
2021/05/10 05:37:46;;;;;;;1.80;1.60;;;;;;;;;;4998032;28;20184;-81
2021/05/10 05:40:14;;;;;;;1.50;1.40;;;;;;;;;;4998081;28;20230;-81
2021/05/10 05:42:41;;;;;;;5.80;2.25;;;;;;;;;;4998146;28;20188;-81
2021/05/10 05:45:09;;;;;;;3.20;1.80;;;;;;;;;;4998349;28;20627;-82
2021/05/10 05:47:36;;;;;;;2.10;1.58;;;;;;;;;;5001706;28;20196;-82
2021/05/10 05:50:05;;;;;;;1.80;1.70;;;;;;;;;;5000830;28;20228;-81
2021/05/10 05:52:32;;;;;;;2.55;1.42;;;;;;;;;;5000873;28;20222;-81
2021/05/10 05:54:59;;;;;;;2.88;2.50;;;;;;;;;;4999858;28;20623;-81
2021/05/10 05:57:26;;;;;;;1.58;1.45;;;;;;;;;;5000068;28;20191;-81
2021/05/10 05:59:53;;;;;;;1.40;1.20;;;;;;;;;;4998979;28;20577;-81
2021/05/10 06:02:19;;;;;;;1.40;1.30;;;;;;;;;;4998503;28;20670;-82
2021/05/10 06:04:46;;;;;;;1.42;1.40;;;;;;;;;;4998144;28;20203;-81
2021/05/10 06:07:14;;;;;;;3.75;1.65;;;;;;;;;;4998513;28;20212;-82
2021/05/10 06:09:41;;;;;;;2.88;1.65;;;;;;;;;;4997446;28;20227;-81
2021/05/10 06:12:09;;;;;;;1.58;1.48;;;;;;;;;;4997697;28;20227;-81
2021/05/10 06:14:36;;;;;;;1.58;1.48;;;;;;;;;;4997090;28;20208;-81
2021/05/10 06:17:03;;;;;;;3.25;1.83;;;;;;;;;;4997537;28;20188;-81
2021/05/10 06:19:30;;;;;;;1.85;1.70;;;;;;;;;;4997033;28;20236;-81
2021/05/10 06:21:56;;;;;;;2.53;2.33;;;;;;;;;;4997244;28;20196;-82
2021/05/10 06:24:24;;;;;;;1.92;1.60;;;;;;;;;;4996980;28;20690;-81
2021/05/10 06:26:51;;;;;;;2.38;1.40;;;;;;;;;;4997916;28;20184;-82
2021/05/10 06:29:19;;;;;;;1.80;1.50;;;;;;;;;;4995887;28;20223;-82
2021/05/10 06:31:46;;;;;;;1.67;1.45;;;;;;;;;;4997987;28;20211;-82
2021/05/10 06:34:13;;;;;;;2.72;1.63;;;;;;;;;;4998715;28;20199;-84
2021/05/10 06:36:40;;;;;;;1.65;1.55;;;;;;;;;;4998399;28;20203;-83
2021/05/10 06:39:07;;;;;;;1.52;1.42;;;;;;;;;;4997962;28;20691;-83
2021/05/10 06:41:34;;;;;;;4.32;1.70;;;;;;;;;;4997528;28;20188;-83
2021/05/10 06:44:01;;;;;;;2.28;1.52;;;;;;;;;;4998235;28;20195;-82
2021/05/10 06:46:29;;;;;;;1.88;1.77;;;;;;;;;;4998452;28;20247;-82
2021/05/10 06:48:56;;;;;;;3.15;1.60;;;;;;;;;;4997557;28;20227;-82
2021/05/10 06:51:23;;;;;;;2.75;1.60;;;;;;;;;;4997131;28;20200;-82
2021/05/10 06:53:50;;;;;;;2.90;1.75;;;;;;;;;;4998221;28;20552;-82
2021/05/10 06:56:17;;;;;;;1.60;1.50;;;;;;;;;;4998020;28;20205;-82
2021/05/10 06:58:44;;;;;;;2.40;1.75;;;;;;;;;;4997716;28;20208;-81
2021/05/10 07:01:11;;;;;;;3.10;1.88;;;;;;;;;;4997321;28;20242;-82
2021/05/10 07:03:38;;;;;;;1.85;1.38;;;;;;;;;;4997345;28;20188;-82
2021/05/10 07:06:05;;;;;;;1.58;1.48;;;;;;;;;;4997147;28;20226;-81
2021/05/10 07:08:32;;;;;;;2.42;1.77;;;;;;;;;;4997389;28;20198;-81
2021/05/10 07:10:59;;;;;;;2.38;2.15;;;;;;;;;;4997402;28;20533;-80
2021/05/10 07:13:26;;;;;;;1.52;1.33;;;;;;;;;;4996975;28;20204;-80
2021/05/10 07:15:54;;;;;;;2.72;1.70;;;;;;;;;;4996559;28;20570;-82
2021/05/10 07:18:21;;;;;;;2.60;1.80;;;;;;;;;;4997983;28;20642;-81
2021/05/10 07:20:48;;;;;;;1.88;1.75;;;;;;;;;;4997561;28;20358;-81
2021/05/10 07:23:17;;;;;;;2.13;1.77;;;;;;;;;;4997051;28;20204;-81
2021/05/10 07:25:47;;;;;;;2.13;1.30;;;;;;;;;;4997036;28;20637;-82
2021/05/10 07:28:16;;;;;;;3.53;2.00;;;;;;;;;;4996693;28;20184;-81
2021/05/10 07:30:44;;;;;;;2.20;1.63;;;;;;;;;;4999805;28;20220;-82
2021/05/10 07:33:12;;;;;;;1.48;1.38;;;;;;;;;;4997539;28;20211;-82
2021/05/10 07:35:39;;;;;;;1.60;1.50;;;;;;;;;;4997198;28;20184;-82
2021/05/10 07:38:06;;;;;;;1.80;1.70;;;;;;;;;;4999107;28;20238;-82
2021/05/10 07:40:33;;;;;;;2.28;1.70;;;;;;;;;;5001243;28;20223;-82
2021/05/10 07:43:01;;;;;;;1.85;1.52;;;;;;;;;;4999454;28;20199;-81
2021/05/10 07:45:29;;;;;;;1.50;1.40;;;;;;;;;;4997451;28;20226;-82
2021/05/10 07:47:58;;;;;;;2.60;2.40;;;;;;;;;;4996636;28;20196;-82
2021/05/10 07:50:28;;;;;;;3.28;2.80;;;;;;;;;;4997443;28;20220;-81
2021/05/10 07:52:55;;;;;;;4.45;2.10;;;;;;;;;;4996446;28;20212;-82
2021/05/10 07:55:23;;;;;;;3.00;1.90;;;;;;;;;;4998764;28;20218;-83
2021/05/10 07:57:51;;;;;;;2.00;1.80;;;;;;;;;;4999045;28;20188;-83
2021/05/10 08:00:22;;;;;;;2.17;1.65;;;;;;;;;;4997707;28;20647;-82
2021/05/10 08:02:53;;;;;;;3.42;1.75;;;;;;;;;;4996231;28;20645;-83
2021/05/10 08:05:20;;;;;;;1.70;1.60;;;;;;;;;;4996276;28;20251;-83
2021/05/10 08:07:49;;;;;;;1.67;1.58;;;;;;;;;;4996229;28;20184;-82
2021/05/10 08:10:17;;;;;;;1.67;1.52;;;;;;;;;;4996547;28;20231;-82
2021/05/10 08:12:43;;;;;;;2.53;1.63;;;;;;;;;;4996071;28;20681;-82
2021/05/10 08:15:12;;;;;;;2.63;1.70;;;;;;;;;;4996400;28;20212;-83
2021/05/10 08:17:39;;;;;;;3.03;1.85;;;;;;;;;;4996587;28;20243;-83
2021/05/10 08:20:07;;;;;;;2.10;1.48;;;;;;;;;;4996192;28;20270;-83
2021/05/10 08:22:37;;;;;;;2.20;2.00;;;;;;;;;;4996886;28;20199;-82
2021/05/10 08:25:07;;;;;;;3.92;2.38;;;;;;;;;;4996986;28;20208;-83
2021/05/10 08:27:34;;;;;;;3.40;2.00;;;;;;;;;;4997317;28;20204;-83
2021/05/10 08:30:03;;;;;;;3.25;1.98;;;;;;;;;;4997118;28;20231;-83
2021/05/10 08:32:30;;;;;;;1.88;1.77;;;;;;;;;;4996992;28;20224;-83
2021/05/10 08:34:57;;;;;;;2.05;1.70;;;;;;;;;;4996990;28;20208;-83
2021/05/10 08:37:24;;;;;;;2.50;2.30;;;;;;;;;;4997277;28;20199;-84
2021/05/10 08:39:51;;;;;;;1.70;1.60;;;;;;;;;;4996807;28;20488;-83
2021/05/10 08:42:19;;;;;;;2.08;1.80;;;;;;;;;;4996639;28;20574;-84
2021/05/10 08:44:46;;;;;;;2.00;1.90;;;;;;;;;;4996383;28;20210;-83
2021/05/10 08:47:13;;;;;;;3.38;2.60;;;;;;;;;;4997122;28;20670;-83
2021/05/10 08:49:40;;;;;;;2.10;1.70;;;;;;;;;;4998003;28;20224;-84
2021/05/10 08:52:07;;;;;;;3.45;1.48;;;;;;;;;;5000371;28;20764;-84
2021/05/10 08:54:36;;;;;;;1.92;1.73;;;;;;;;;;5004935;28;20207;-84
2021/05/10 08:57:03;;;;;;;1.80;1.70;;;;;;;;;;5004960;28;20196;-84
2021/05/10 08:59:31;;;;;;;2.30;2.10;;;;;;;;;;5005189;28;20254;-84
2021/05/10 09:02:00;;;;;;;2.95;1.60;;;;;;;;;;5005903;28;20650;-83
2021/05/10 09:04:32;;;;;;;3.97;1.90;;;;;;;;;;5005840;28;20203;-83
2021/05/10 09:07:17;;;;;;;1.75;1.50;;;;;;;;;;5004451;28;20211;-84
2021/05/10 09:09:58;;;;;;;3.08;2.08;;;;;;;;;;5004535;28;20227;-83
2021/05/10 09:12:40;;;;;;;2.15;1.95;;;;;;;;;;5005192;28;20231;-85
2021/05/10 09:15:21;;;;;;;1.80;1.70;;;;;;;;;;5005868;28;20210;-84
2021/05/10 09:17:53;;;;;;;7.40;3.00;;;;;;;;;;5006624;28;20196;-85
2021/05/10 09:20:22;;;;;;;1.60;1.50;;;;;;;;;;5006630;28;20235;-84
2021/05/10 09:22:52;;;;;;;2.55;1.73;;;;;;;;;;5007329;28;20211;-84
2021/05/10 09:25:19;;;;;;;1.73;1.60;;;;;;;;;;5006416;28;20294;-86
2021/05/10 09:27:46;;;;;;;1.73;1.60;;;;;;;;;;5006199;28;20642;-83
2021/05/10 09:30:25;;;;;;;2.10;1.70;;;;;;;;;;5002680;28;20339;-84
2021/05/10 09:32:54;;;;;;;4.40;1.70;;;;;;;;;;5000221;28;20717;-85
2021/05/10 09:35:30;;;;;;;3.50;2.28;;;;;;;;;;4999659;28;20220;-82
2021/05/10 09:38:07;;;;;;;4.75;1.95;;;;;;;;;;5000082;28;20219;-85
2021/05/10 09:40:44;;;;;;;2.00;1.77;;;;;;;;;;4999663;28;20219;-85
2021/05/10 09:43:15;;;;;;;6.15;2.63;;;;;;;;;;4998828;28;20207;-84
2021/05/10 09:45:46;;;;;;;3.90;2.55;;;;;;;;;;4999883;28;20210;-85
2021/05/10 09:48:20;;;;;;;2.75;2.15;;;;;;;;;;4999189;28;20188;-84
2021/05/10 09:50:50;;;;;;;5.43;2.53;;;;;;;;;;4999141;28;20266;-84
2021/05/10 09:53:32;;;;;;;2.95;2.63;;;;;;;;;;4998847;28;20591;-85
2021/05/10 09:56:00;;;;;;;2.88;2.10;;;;;;;;;;4999818;28;20206;-86
2021/05/10 09:58:40;;;;;;;5.72;2.17;;;;;;;;;;4999174;28;20242;-85
2021/05/10 10:01:09;;;;;;;3.42;2.28;;;;;;;;;;4998486;28;20207;-84
2021/05/10 10:03:39;;;;;;;3.08;2.33;;;;;;;;;;4999098;28;20199;-85
2021/05/10 10:06:09;;;;;;;2.08;1.70;;;;;;;;;;4998831;28;20298;-84
2021/05/10 10:08:37;;;;;;;2.30;1.60;;;;;;;;;;4998490;28;20235;-83
2021/05/10 10:11:08;;;;;;;5.05;1.75;;;;;;;;;;4998066;28;20188;-84
2021/05/10 10:13:36;;;;;;;2.42;1.90;;;;;;;;;;4998292;28;20748;-84
2021/05/10 10:16:07;;;;;;;2.25;1.63;;;;;;;;;;4998395;28;20280;-83
2021/05/10 10:18:38;;;;;;;4.38;1.83;;;;;;;;;;4998297;28;20208;-84
2021/05/10 10:21:06;;;;;;;1.40;1.30;;;;;;;;;;4998398;28;20184;-84
2021/05/10 10:23:35;;;;;;;3.58;1.88;;;;;;;;;;4998649;28;20192;-84
2021/05/10 10:26:05;;;;;;;3.58;1.52;;;;;;;;;;4998466;28;20257;-85
2021/05/10 10:28:33;;;;;;;3.83;1.52;;;;;;;;;;4998442;28;20269;-85
2021/05/10 10:31:04;;;;;;;1.65;1.52;;;;;;;;;;4998826;28;20187;-84
2021/05/10 10:33:39;;;;;;;1.10;1.10;;;;;;;;;;4998269;28;20219;-85
2021/05/10 10:36:14;;;;;;;1.40;1.30;;;;;;;;;;4997192;28;20195;-83
2021/05/10 10:38:40;;;;;;;1.40;1.30;;;;;;;;;;4998801;28;20217;-85
2021/05/10 10:41:22;;;;;;;3.22;1.70;;;;;;;;;;4998009;28;20223;-85
2021/05/10 10:43:51;;;;;;;2.67;1.20;;;;;;;;;;4998361;28;20563;-85
2021/05/10 10:46:28;;;;;;;2.38;1.33;;;;;;;;;;4998176;28;20670;-85
2021/05/10 10:49:25;;;;;;;1.35;1.35;;;;;;;;;;4998225;28;20301;-86
2021/05/10 10:51:53;;;;;;;1.45;1.35;;;;;;;;;;4998636;28;20188;-83
2021/05/10 10:54:21;;;;;;;6.85;1.75;;;;;;;;;;4997734;28;20220;-84
2021/05/10 10:56:54;;;;;;;1.15;1.08;;;;;;;;;;4997893;28;20196;-84
2021/05/10 10:59:36;;;;;;;2.00;1.08;;;;;;;;;;4998049;28;20277;-84
2021/05/10 11:02:18;;;;;;;2.53;1.20;;;;;;;;;;4997390;28;20246;-84
2021/05/10 11:04:47;;;;;;;1.63;1.00;;;;;;;;;;4996802;28;20278;-84
2021/05/10 11:07:14;;;;;;;1.15;1.13;;;;;;;;;;4996894;28;20290;-84
2021/05/10 11:09:53;;;;;;;1.20;0.98;;;;;;;;;;4996723;28;20219;-84
2021/05/10 11:12:51;;;;;;;2.53;1.83;;;;;;;;;;4996716;28;20641;-84
2021/05/10 11:15:46;;;;;;;0.70;0.70;;;;;;;;;;4995781;28;20279;-83
2021/05/10 11:18:40;;;;;;;2.50;1.02;;;;;;;;;;4996008;28;20194;-83
2021/05/10 11:21:10;;;;;;;0.70;0.70;;;;;;;;;;4995886;28;20204;-85
2021/05/10 11:23:39;;;;;;;0.70;0.70;;;;;;;;;;4996424;28;20191;-85
2021/05/10 11:26:07;;;;;;;0.95;0.70;;;;;;;;;;4995827;28;20220;-85
2021/05/10 11:28:58;;;;;;;0.60;0.60;;;;;;;;;;4996603;28;20538;-85
2021/05/10 11:31:36;;;;;;;2.33;0.60;;;;;;;;;;4995965;28;20204;-83
2021/05/10 11:34:15;;;;;;;0.60;0.60;;;;;;;;;;4996392;28;20670;-84
2021/05/10 11:36:51;;;;;;;0.90;0.77;;;;;;;;;;4996843;28;20558;-84
2021/05/10 11:39:23;;;;;;;0.60;0.60;;;;;;;;;;4996631;28;20238;-84
2021/05/10 11:41:56;;;;;;;1.40;0.85;;;;;;;;;;4996209;28;20278;-84
2021/05/10 11:44:25;;;;;;;3.67;0.60;;;;;;;;;;4996092;28;20196;-84
2021/05/10 11:46:53;;;;;;;0.90;0.77;;;;;;;;;;4995197;28;20204;-83
2021/05/10 11:49:27;;;;;;;1.08;0.98;;;;;;;;;;4995674;28;20240;-84
2021/05/10 11:51:56;;;;;;;1.20;0.80;;;;;;;;;;4995499;28;20207;-84
2021/05/10 11:54:24;;;;;;;0.90;0.90;;;;;;;;;;4995776;28;20250;-83
2021/05/10 11:56:52;;;;;;;1.35;0.85;;;;;;;;;;4996191;28;20214;-85
2021/05/10 11:59:30;;;;;;;0.70;0.70;;;;;;;;;;4996400;28;20262;-85
2021/05/10 12:01:57;;;;;;;1.15;1.05;;;;;;;;;;4995761;28;20585;-84
2021/05/10 12:04:26;;;;;;;0.75;0.75;;;;;;;;;;4996316;28;20605;-85
2021/05/10 12:06:55;;;;;;;1.23;1.23;;;;;;;;;;4995987;28;20262;-83
2021/05/10 12:09:44;;;;;;;0.93;0.80;;;;;;;;;;4995273;28;20694;-84
2021/05/10 12:12:33;;;;;;;1.17;0.90;;;;;;;;;;4994987;28;20564;-83
2021/05/10 12:15:09;;;;;;;1.83;0.82;;;;;;;;;;4994992;28;20222;-84
2021/05/10 12:17:37;;;;;;;0.90;0.90;;;;;;;;;;4995013;28;20191;-85
2021/05/10 12:20:10;;;;;;;0.80;0.80;;;;;;;;;;4994233;28;20234;-84
2021/05/10 12:22:41;;;;;;;0.95;0.85;;;;;;;;;;4995019;28;20192;-83
2021/05/10 12:25:17;;;;;;;0.77;0.77;;;;;;;;;;4995118;28;20207;-84
2021/05/10 12:27:51;;;;;;;2.55;2.35;;;;;;;;;;4997841;28;20191;-84
2021/05/10 12:30:25;;;;;;;2.88;0.80;;;;;;;;;;4998625;28;20219;-83
2021/05/10 12:32:54;;;;;;;0.93;0.93;;;;;;;;;;4999350;28;20188;-84
2021/05/10 12:35:25;;;;;;;1.85;0.85;;;;;;;;;;4998371;28;20224;-83
2021/05/10 12:37:55;;;;;;;1.13;1.08;;;;;;;;;;4998921;28;20689;-83
2021/05/10 12:40:25;;;;;;;0.70;0.70;;;;;;;;;;4998195;28;20231;-84
2021/05/10 12:43:07;;;;;;;1.23;1.13;;;;;;;;;;4998527;28;20192;-83
2021/05/10 12:45:35;;;;;;;2.67;1.00;;;;;;;;;;4998777;28;20654;-84
2021/05/10 12:48:47;;;;;;;0.70;0.70;;;;;;;;;;4999338;28;20207;-84
2021/05/10 12:51:15;;;;;;;0.82;0.82;;;;;;;;;;4991855;28;20246;-84
2021/05/10 12:53:46;;;;;;;1.13;0.90;;;;;;;;;;4997805;28;20223;-83
2021/05/10 12:56:16;;;;;;;0.82;0.75;;;;;;;;;;4998773;28;20282;-84
2021/05/10 12:58:44;;;;;;;0.85;0.85;;;;;;;;;;4998529;28;20198;-83
2021/05/10 13:01:14;;;;;;;1.80;1.13;;;;;;;;;;4998276;28;20588;-83
2021/05/10 13:03:42;;;;;;;1.08;0.70;;;;;;;;;;4998630;28;20184;-84
2021/05/10 13:06:12;;;;;;;0.90;0.90;;;;;;;;;;4998439;28;20282;-83
2021/05/10 13:08:45;;;;;;;0.60;0.60;;;;;;;;;;4998282;28;20283;-84
2021/05/10 13:11:16;;;;;;;1.35;0.73;;;;;;;;;;4998512;28;20572;-84
2021/05/10 13:13:57;;;;;;;0.68;0.60;;;;;;;;;;4998076;28;20222;-83
2021/05/10 13:16:38;;;;;;;1.08;0.80;;;;;;;;;;4998461;28;20187;-83
2021/05/10 13:22:37;;;;;;;0.80;0.80;;;;;;;;;;4986488;28;20568;-84
2021/05/10 13:31:06;;;;;;;2.38;0.80;;;;;;;;;;4997228;28;20262;-85
2021/05/10 13:33:39;;;;;;;1.88;0.90;;;;;;;;;;4997162;28;20736;-84
2021/05/10 13:36:30;;;;;;;0.80;0.80;;;;;;;;;;4997177;28;20207;-82
2021/05/10 13:38:59;;;;;;;2.20;0.93;;;;;;;;;;4996476;28;20230;-84
2021/05/10 13:41:35;;;;;;;1.27;1.00;;;;;;;;;;4996742;28;20666;-84
2021/05/10 13:44:07;;;;;;;1.83;1.67;;;;;;;;;;4996966;28;20294;-84
2021/05/10 13:46:36;;;;;;;1.10;0.80;;;;;;;;;;4998205;28;20219;-83
2021/05/10 13:49:03;;;;;;;0.68;0.68;;;;;;;;;;4997295;28;20427;-84
2021/05/10 13:51:30;;;;;;;0.95;0.70;;;;;;;;;;4997462;28;20620;-83
2021/05/10 13:53:56;;;;;;;1.25;0.80;;;;;;;;;;4997352;28;20223;-85
2021/05/10 13:56:23;;;;;;;0.80;0.80;;;;;;;;;;4997487;28;20821;-83
2021/05/10 13:58:51;;;;;;;0.60;0.60;;;;;;;;;;4997511;28;20223;-83
2021/05/10 14:01:18;;;;;;;0.70;0.70;;;;;;;;;;4997018;28;20208;-83
2021/05/10 14:03:46;;;;;;;0.90;0.90;;;;;;;;;;4997750;28;20196;-83
2021/05/10 14:06:13;;;;;;;0.70;0.70;;;;;;;;;;4997634;28;20225;-83
2021/05/10 14:08:41;;;;;;;0.75;0.75;;;;;;;;;;4997731;28;20682;-83
2021/05/10 14:11:08;;;;;;;0.80;0.80;;;;;;;;;;4997904;28;20188;-83
2021/05/10 14:13:35;;;;;;;1.13;0.90;;;;;;;;;;4997692;28;20204;-84
2021/05/10 14:16:04;;;;;;;6.03;2.05;;;;;;;;;;4998209;28;20218;-83
2021/05/10 14:18:34;;;;;;;1.92;0.77;;;;;;;;;;4997662;28;20211;-83
2021/05/10 14:23:46;;;;;;;0.80;0.80;;;;;;;;;;4998991;28;20218;-82
2021/05/10 14:26:13;;;;;;;0.80;0.80;;;;;;;;;;4999326;28;20274;-82
2021/05/10 14:28:40;;;;;;;0.70;0.70;;;;;;;;;;4998622;28;20214;-83
2021/05/10 14:31:09;;;;;;;0.80;0.80;;;;;;;;;;4999436;28;20191;-83
2021/05/10 14:33:37;;;;;;;1.15;1.10;;;;;;;;;;4998289;28;20206;-82
2021/05/10 14:36:05;;;;;;;1.90;1.10;;;;;;;;;;4997155;28;20230;-82
2021/05/10 14:38:32;;;;;;;0.57;0.57;;;;;;;;;;4997687;28;20207;-82
2021/05/10 14:41:02;;;;;;;1.42;0.70;;;;;;;;;;4995868;28;20203;-83
2021/05/10 14:43:29;;;;;;;1.02;0.65;;;;;;;;;;4995764;28;20203;-82
2021/05/10 14:45:56;;;;;;;0.80;0.80;;;;;;;;;;4995889;28;20204;-84
2021/05/10 14:48:24;;;;;;;0.95;0.70;;;;;;;;;;4995951;28;20216;-82
2021/05/10 14:50:52;;;;;;;1.10;1.00;;;;;;;;;;4995758;28;20649;-83
2021/05/10 14:53:19;;;;;;;3.03;0.70;;;;;;;;;;4996945;28;20554;-84
2021/05/10 14:55:47;;;;;;;0.57;0.57;;;;;;;;;;4996582;28;20227;-82
2021/05/10 14:58:13;;;;;;;1.25;0.80;;;;;;;;;;4996549;28;20234;-84
2021/05/10 15:00:41;;;;;;;0.40;0.40;;;;;;;;;;4997493;28;20223;-83
2021/05/10 15:03:08;;;;;;;1.27;0.68;;;;;;;;;;4997741;28;20212;-83
2021/05/10 15:05:35;;;;;;;2.25;1.17;;;;;;;;;;4996899;28;20200;-83
2021/05/10 15:08:02;;;;;;;0.75;0.70;;;;;;;;;;4996980;28;20573;-83
2021/05/10 15:10:29;;;;;;;2.92;1.90;;;;;;;;;;4998259;28;20228;-85
2021/05/10 15:12:56;;;;;;;1.27;1.25;;;;;;;;;;4997468;28;20580;-84
2021/05/10 15:15:23;;;;;;;1.05;0.90;;;;;;;;;;4997616;28;20231;-83